createdAt,value
2017-08-19T00:02:06.673Z,9.00
2017-08-19T00:04:33.493Z,7.75
2017-08-19T00:07:01.510Z,8.42
2017-08-19T00:09:28.373Z,8.88
2017-08-19T00:11:55.161Z,8.10
2017-08-19T00:14:22.017Z,8.22
2017-08-19T00:16:50.055Z,8.13
2017-08-19T00:19:18.337Z,7.35
2017-08-19T00:21:45.865Z,8.03
2017-08-19T00:24:13.088Z,7.75
2017-08-19T00:26:40.518Z,7.33
2017-08-19T00:29:11.727Z,8.45
2017-08-19T00:31:38.505Z,8.00
2017-08-19T00:34:05.297Z,8.75
2017-08-19T00:36:32.083Z,7.17
2017-08-19T00:38:59.211Z,8.53
2017-08-19T00:41:26.026Z,7.10
2017-08-19T00:43:53.105Z,8.02
2017-08-19T00:46:20.178Z,7.65
2017-08-19T00:48:47.640Z,7.50
2017-08-19T00:51:15.966Z,7.43
2017-08-19T00:53:42.781Z,6.43
2017-08-19T00:56:09.557Z,7.18
2017-08-19T00:58:37.043Z,7.32
2017-08-19T01:01:03.826Z,5.90
2017-08-19T01:03:31.486Z,6.12
2017-08-19T01:05:58.620Z,6.42
2017-08-19T01:08:25.715Z,5.93
2017-08-19T01:10:54.410Z,6.45
2017-08-19T01:13:21.455Z,4.95
2017-08-19T01:15:52.346Z,5.40
2017-08-19T01:18:20.170Z,4.33
2017-08-19T01:20:47.301Z,4.82
2017-08-19T01:23:14.634Z,7.65
2017-08-19T01:25:48.286Z,5.75
2017-08-19T01:28:15.346Z,5.88
2017-08-19T01:30:43.349Z,5.32
2017-08-19T01:33:11.978Z,6.80
2017-08-19T01:35:38.797Z,4.82
2017-08-19T01:38:06.502Z,4.58
2017-08-19T01:40:33.891Z,4.43
2017-08-19T01:43:00.737Z,4.55
2017-08-19T01:45:28.493Z,4.80
2017-08-19T01:47:56.416Z,4.75
2017-08-19T01:50:25.623Z,4.52
2017-08-19T01:52:53.948Z,4.33
2017-08-19T01:55:21.603Z,3.85
2017-08-19T01:57:49.215Z,4.37
2017-08-19T02:00:15.980Z,5.17
2017-08-19T02:05:16.607Z,4.70
2017-08-19T02:07:45.195Z,4.97
2017-08-19T02:10:12.244Z,4.30
2017-08-19T02:12:39.687Z,5.22
2017-08-19T02:15:06.710Z,4.42
2017-08-19T02:17:33.836Z,5.25
2017-08-19T02:20:01.855Z,4.63
2017-08-19T02:22:30.332Z,5.13
2017-08-19T02:25:00.979Z,5.63
2017-08-19T02:27:27.974Z,6.02
2017-08-19T02:29:56.483Z,5.57
2017-08-19T02:32:25.654Z,6.68
2017-08-19T02:34:53.353Z,5.73
2017-08-19T02:37:20.671Z,5.42
2017-08-19T02:39:47.721Z,4.70
2017-08-19T02:42:15.403Z,5.10
2017-08-19T02:44:43.250Z,5.92
2017-08-19T02:47:10.892Z,4.85
2017-08-19T02:49:38.568Z,5.15
2017-08-19T02:52:07.732Z,4.62
2017-08-19T02:54:35.712Z,4.97
2017-08-19T02:57:03.503Z,4.90
2017-08-19T02:59:31.420Z,4.93
2017-08-19T03:01:58.555Z,4.97
2017-08-19T03:04:25.547Z,4.37
2017-08-19T03:06:54.733Z,4.90
2017-08-19T03:09:21.504Z,5.57
2017-08-19T03:11:49.160Z,4.78
2017-08-19T03:14:17.166Z,4.60
2017-08-19T03:16:44.868Z,5.60
2017-08-19T03:19:12.034Z,4.53
2017-08-19T03:21:40.275Z,4.27
2017-08-19T03:24:09.653Z,5.83
2017-08-19T03:26:36.769Z,5.70
2017-08-19T03:29:04.676Z,5.60
2017-08-19T03:31:32.147Z,5.17
2017-08-19T03:33:59.237Z,5.12
2017-08-19T03:36:26.844Z,4.27
2017-08-19T03:38:53.597Z,5.37
2017-08-19T03:41:22.523Z,4.60
2017-08-19T03:43:49.868Z,4.52
2017-08-19T03:46:16.637Z,4.40
2017-08-19T03:48:43.501Z,5.15
2017-08-19T03:51:11.404Z,5.37
2017-08-19T03:53:39.171Z,4.77
2017-08-19T03:56:06.775Z,4.23
2017-08-19T03:58:34.464Z,5.05
2017-08-19T04:01:01.268Z,6.27
2017-08-19T04:03:28.807Z,5.68
2017-08-19T04:05:56.053Z,3.90
2017-08-19T04:08:23.672Z,5.05
2017-08-19T04:10:57.853Z,5.17
2017-08-19T04:13:24.970Z,5.62
2017-08-19T04:15:51.990Z,5.08
2017-08-19T04:18:19.228Z,5.42
2017-08-19T04:20:47.388Z,4.88
2017-08-19T04:23:14.175Z,5.47
2017-08-19T04:25:41.356Z,4.28
2017-08-19T04:28:09.330Z,5.52
2017-08-19T04:30:36.345Z,4.92
2017-08-19T04:33:03.437Z,4.55
2017-08-19T04:35:31.900Z,3.95
2017-08-19T04:40:30.726Z,5.00
2017-08-19T04:42:59.020Z,5.02
2017-08-19T04:45:26.228Z,5.13
2017-08-19T04:47:54.595Z,4.35
2017-08-19T04:50:21.367Z,5.15
2017-08-19T04:52:48.146Z,4.63
2017-08-19T04:55:15.360Z,5.87
2017-08-19T04:57:45.416Z,5.07
2017-08-19T05:00:13.434Z,6.37
2017-08-19T05:02:40.221Z,4.77
2017-08-19T05:05:06.996Z,4.68
2017-08-19T05:07:34.755Z,6.43
2017-08-19T05:10:03.345Z,6.27
2017-08-19T05:12:31.614Z,5.00
2017-08-19T05:15:00.099Z,5.83
2017-08-19T05:17:28.141Z,5.13
2017-08-19T05:19:57.411Z,6.25
2017-08-19T05:22:25.200Z,4.50
2017-08-19T05:24:53.990Z,5.92
2017-08-19T05:27:24.274Z,4.90
2017-08-19T05:29:51.054Z,4.52
2017-08-19T05:32:18.200Z,4.92
2017-08-19T05:34:45.366Z,5.60
2017-08-19T05:37:12.496Z,5.38
2017-08-19T05:39:39.281Z,5.12
2017-08-19T05:42:06.339Z,4.58
2017-08-19T05:44:33.979Z,7.90
2017-08-19T05:47:01.481Z,5.82
2017-08-19T05:49:28.466Z,5.02
2017-08-19T05:51:56.375Z,5.95
2017-08-19T05:54:24.714Z,5.98
2017-08-19T05:56:52.090Z,5.15
2017-08-19T05:59:19.626Z,5.47
2017-08-19T06:01:47.077Z,5.00
2017-08-19T06:04:13.844Z,4.35
2017-08-19T06:06:42.387Z,4.13
2017-08-19T06:09:11.201Z,4.35
2017-08-19T06:11:38.197Z,3.68
2017-08-19T06:14:04.985Z,5.12
2017-08-19T06:16:31.988Z,3.42
2017-08-19T06:18:59.065Z,3.58
2017-08-19T06:21:26.041Z,2.78
2017-08-19T06:23:53.515Z,3.40
2017-08-19T06:26:20.290Z,3.65
2017-08-19T06:28:47.048Z,3.18
2017-08-19T06:31:14.079Z,3.08
2017-08-19T06:33:41.173Z,3.82
2017-08-19T06:36:08.226Z,3.17
2017-08-19T06:38:35.249Z,2.97
2017-08-19T06:41:02.000Z,2.78
2017-08-19T06:43:28.759Z,3.32
2017-08-19T06:45:56.417Z,2.40
2017-08-19T06:48:24.338Z,2.75
2017-08-19T06:50:51.108Z,5.50
2017-08-19T06:53:18.237Z,3.47
2017-08-19T06:55:45.155Z,2.73
2017-08-19T06:58:16.324Z,3.13
2017-08-19T07:00:43.470Z,2.45
2017-08-19T07:03:10.564Z,2.32
2017-08-19T07:05:37.334Z,2.75
2017-08-19T07:08:04.117Z,2.93
2017-08-19T07:10:30.879Z,2.40
2017-08-19T07:12:57.637Z,2.72
2017-08-19T07:15:24.408Z,3.47
2017-08-19T07:17:51.574Z,3.62
2017-08-19T07:20:19.145Z,3.07
2017-08-19T07:22:45.919Z,3.35
2017-08-19T07:25:13.036Z,2.18
2017-08-19T07:27:40.042Z,2.62
2017-08-19T07:30:07.467Z,2.05
2017-08-19T07:32:34.271Z,2.08
2017-08-19T07:35:01.401Z,1.93
2017-08-19T07:37:28.562Z,2.30
2017-08-19T07:39:55.667Z,2.18
2017-08-19T07:42:22.672Z,2.90
2017-08-19T07:44:49.473Z,2.08
2017-08-19T07:47:16.485Z,2.28
2017-08-19T07:49:43.629Z,3.37
2017-08-19T07:52:13.634Z,2.80
2017-08-19T07:54:40.768Z,2.27
2017-08-19T07:57:08.222Z,3.00
2017-08-19T07:59:35.380Z,2.37
2017-08-19T08:02:02.157Z,2.80
2017-08-19T08:04:29.140Z,2.13
2017-08-19T08:06:56.310Z,2.67
2017-08-19T08:09:23.418Z,1.78
2017-08-19T08:11:50.474Z,2.42
2017-08-19T08:14:17.275Z,2.30
2017-08-19T08:16:44.996Z,2.70
2017-08-19T08:19:13.377Z,3.25
2017-08-19T08:21:40.845Z,2.73
2017-08-19T08:24:07.831Z,2.85
2017-08-19T08:26:34.925Z,2.77
2017-08-19T08:29:02.102Z,2.90
2017-08-19T08:31:28.864Z,2.92
2017-08-19T08:33:55.663Z,2.90
2017-08-19T08:36:22.744Z,2.60
2017-08-19T08:38:49.513Z,2.98
2017-08-19T08:41:16.646Z,2.60
2017-08-19T08:43:43.655Z,2.97
2017-08-19T08:46:10.415Z,2.93
2017-08-19T08:48:37.557Z,2.75
2017-08-19T08:51:04.576Z,2.48
2017-08-19T08:53:32.195Z,2.75
2017-08-19T08:55:58.969Z,2.48
2017-08-19T08:58:26.006Z,2.68
2017-08-19T09:00:53.914Z,2.80
2017-08-19T09:03:21.013Z,2.72
2017-08-19T09:05:47.795Z,3.17
2017-08-19T09:08:15.453Z,3.13
2017-08-19T09:10:43.287Z,3.38
2017-08-19T09:13:10.441Z,2.80
2017-08-19T09:15:37.538Z,3.33
2017-08-19T09:18:04.921Z,3.03
2017-08-19T09:20:31.941Z,2.77
2017-08-19T09:22:59.033Z,2.53
2017-08-19T09:25:25.790Z,3.50
2017-08-19T09:27:52.615Z,3.40
2017-08-19T09:30:19.800Z,3.05
2017-08-19T09:32:46.565Z,2.78
2017-08-19T09:35:13.379Z,3.27
2017-08-19T09:37:43.091Z,2.50
2017-08-19T09:40:11.265Z,3.12
2017-08-19T09:42:39.265Z,3.57
2017-08-19T09:45:07.143Z,2.93
2017-08-19T09:47:34.034Z,3.28
2017-08-19T09:50:01.128Z,3.98
2017-08-19T09:52:28.732Z,3.37
2017-08-19T09:54:56.322Z,3.10
2017-08-19T09:57:23.807Z,3.60
2017-08-19T09:59:52.227Z,2.70
2017-08-19T10:02:20.205Z,3.28
2017-08-19T10:04:47.309Z,3.10
2017-08-19T10:07:17.424Z,2.58
2017-08-19T10:09:51.225Z,2.43
2017-08-19T10:12:18.429Z,2.60
2017-08-19T10:14:51.343Z,2.88
2017-08-19T10:17:18.497Z,3.05
2017-08-19T10:19:46.532Z,2.73
2017-08-19T10:22:13.927Z,2.75
2017-08-19T10:24:43.853Z,2.53
2017-08-19T10:27:12.360Z,2.20
2017-08-19T10:29:39.213Z,2.00
2017-08-19T10:32:06.019Z,2.60
2017-08-19T10:34:39.021Z,2.57
2017-08-19T10:37:06.577Z,2.43
2017-08-19T10:39:36.786Z,2.02
2017-08-19T10:42:04.267Z,2.05
2017-08-19T10:44:32.915Z,2.72
2017-08-19T10:47:14.492Z,1.92
2017-08-19T10:49:42.005Z,2.32
2017-08-19T10:52:10.674Z,2.33
2017-08-19T10:54:38.846Z,2.40
2017-08-19T10:57:06.274Z,2.58
2017-08-19T10:59:33.345Z,2.42
2017-08-19T11:02:00.490Z,3.10
2017-08-19T11:04:27.699Z,2.72
2017-08-19T11:06:55.133Z,2.70
2017-08-19T11:09:24.152Z,2.80
2017-08-19T11:11:51.517Z,2.80
2017-08-19T11:14:19.417Z,2.85
2017-08-19T11:16:47.307Z,2.47
2017-08-19T11:19:15.058Z,3.37
2017-08-19T11:21:41.880Z,2.77
2017-08-19T11:24:09.008Z,2.87
2017-08-19T11:26:37.453Z,2.87
2017-08-19T11:29:05.018Z,3.57
2017-08-19T11:31:33.470Z,3.40
2017-08-19T11:34:01.834Z,2.62
2017-08-19T11:36:30.124Z,2.72
2017-08-19T11:38:57.256Z,4.50
2017-08-19T11:41:25.242Z,3.02
2017-08-19T11:43:54.308Z,3.68
2017-08-19T11:46:21.492Z,3.32
2017-08-19T11:48:48.479Z,3.88
2017-08-19T11:51:16.013Z,3.67
2017-08-19T11:53:42.825Z,4.53
2017-08-19T11:56:09.584Z,4.85
2017-08-19T11:58:36.422Z,4.80
2017-08-19T12:01:03.422Z,4.97
2017-08-19T12:03:31.618Z,5.32
2017-08-19T12:06:00.142Z,4.98
2017-08-19T12:08:26.994Z,4.50
2017-08-19T12:10:54.314Z,3.68
2017-08-19T12:13:21.413Z,3.75
2017-08-19T12:15:49.436Z,3.45
2017-08-19T12:22:09.643Z,3.57
2017-08-19T12:24:38.610Z,3.65
2017-08-19T12:27:05.629Z,3.52
2017-08-19T12:29:32.983Z,3.95
2017-08-19T12:32:01.503Z,3.63
2017-08-19T12:34:28.890Z,2.78
2017-08-19T12:36:55.986Z,2.93
2017-08-19T12:39:23.166Z,3.40
2017-08-19T12:41:50.155Z,4.70
2017-08-19T12:44:17.607Z,3.55
2017-08-19T12:46:45.070Z,3.30
2017-08-19T12:49:12.078Z,3.32
2017-08-19T12:51:39.191Z,3.68
2017-08-19T12:56:42.021Z,2.95
2017-08-19T12:59:09.031Z,2.98
2017-08-19T13:01:35.914Z,3.33
2017-08-19T13:04:02.706Z,3.27
2017-08-19T13:06:29.793Z,2.60
2017-08-19T13:08:57.144Z,2.78
2017-08-19T13:11:23.937Z,3.05
2017-08-19T13:13:51.528Z,3.73
2017-08-19T13:16:23.233Z,3.40
2017-08-19T13:18:52.161Z,2.67
2017-08-19T13:21:19.209Z,3.48
2017-08-19T13:23:46.277Z,3.48
2017-08-19T13:26:13.530Z,3.03
2017-08-19T13:28:44.147Z,2.77
2017-08-19T13:31:11.175Z,3.48
2017-08-19T13:33:38.456Z,3.18
2017-08-19T13:36:05.538Z,4.33
2017-08-19T13:38:33.332Z,3.12
2017-08-19T13:41:00.829Z,3.35
2017-08-19T13:43:27.599Z,3.12
2017-08-19T13:45:54.731Z,3.72
2017-08-19T13:48:21.836Z,3.37
2017-08-19T13:50:48.825Z,4.12
2017-08-19T13:53:16.278Z,4.95
2017-08-19T13:55:43.451Z,5.55
2017-08-19T13:58:10.737Z,5.95
2017-08-19T14:03:32.988Z,6.48
2017-08-19T14:06:00.610Z,6.67
2017-08-19T14:08:33.865Z,6.87
2017-08-19T14:11:00.959Z,7.08
2017-08-19T14:13:28.446Z,5.53
2017-08-19T14:16:01.697Z,6.27
2017-08-19T14:18:35.110Z,6.90
2017-08-19T14:21:14.174Z,6.43
2017-08-19T14:23:57.541Z,6.43
2017-08-19T14:26:30.397Z,6.58
2017-08-19T14:31:46.358Z,6.25
2017-08-19T14:34:19.121Z,5.60
2017-08-19T14:36:46.698Z,5.53
2017-08-19T14:39:14.108Z,5.42
2017-08-19T14:41:47.277Z,5.50
2017-08-19T14:44:14.113Z,5.27
2017-08-19T14:46:44.408Z,4.87
2017-08-19T14:49:11.850Z,4.92
2017-08-19T14:51:39.243Z,4.57
2017-08-19T14:54:09.716Z,5.50
2017-08-19T14:56:37.416Z,4.13
2017-08-19T14:59:08.193Z,6.02
2017-08-19T15:01:35.344Z,5.42
2017-08-19T15:04:05.582Z,5.78
2017-08-19T15:09:18.147Z,6.42
2017-08-19T15:11:53.302Z,6.92
2017-08-19T15:14:20.092Z,6.62
2017-08-19T15:16:55.303Z,6.63
2017-08-19T15:19:27.970Z,6.00
2017-08-19T15:22:00.691Z,7.12
2017-08-19T15:24:27.491Z,8.13
2017-08-19T15:26:54.798Z,6.80
2017-08-19T15:29:21.853Z,7.00
2017-08-19T15:31:49.432Z,7.55
2017-08-19T15:34:18.009Z,7.45
2017-08-19T15:36:50.522Z,8.43
2017-08-19T15:39:23.824Z,6.92
2017-08-19T15:44:36.736Z,8.68
2017-08-19T15:47:07.914Z,7.92
2017-08-19T15:49:35.336Z,6.38
2017-08-19T15:52:07.772Z,6.92
2017-08-19T15:54:37.488Z,8.83
2017-08-19T15:59:50.279Z,7.15
2017-08-19T16:02:17.700Z,6.58
2017-08-19T16:04:48.212Z,8.17
2017-08-19T16:07:14.977Z,7.87
2017-08-19T16:09:42.195Z,7.45
2017-08-19T16:12:09.644Z,6.98
2017-08-19T16:14:37.039Z,7.15
2017-08-19T16:17:04.576Z,7.05
2017-08-19T16:19:53.694Z,7.62
2017-08-19T16:22:20.866Z,5.50
2017-08-19T16:24:48.034Z,6.10
2017-08-19T16:27:14.812Z,5.20
2017-08-19T16:29:42.318Z,4.00
2017-08-19T16:32:09.797Z,3.98
2017-08-19T16:34:37.268Z,4.08
2017-08-19T16:37:04.057Z,2.82
2017-08-19T16:39:31.047Z,3.93
2017-08-19T16:41:58.037Z,3.30
2017-08-19T16:44:25.216Z,4.23
2017-08-19T16:46:52.321Z,3.22
2017-08-19T16:49:19.366Z,3.53
2017-08-19T16:51:53.547Z,3.48
2017-08-19T16:54:25.941Z,4.10
2017-08-19T16:56:53.506Z,4.27
2017-08-19T16:59:21.218Z,4.17
2017-08-19T17:01:58.443Z,4.35
2017-08-19T17:04:28.968Z,3.58
2017-08-19T17:07:02.020Z,3.50
2017-08-19T17:09:30.471Z,3.52
2017-08-19T17:12:09.497Z,3.35
2017-08-19T17:14:49.742Z,3.68
2017-08-19T17:17:17.547Z,3.58
2017-08-19T17:19:50.273Z,3.23
2017-08-19T17:22:18.094Z,2.95
2017-08-19T17:24:45.587Z,2.87
2017-08-19T17:27:13.333Z,3.40
2017-08-19T17:29:56.939Z,2.98
2017-08-19T17:32:26.294Z,3.37
2017-08-19T17:34:54.141Z,3.00
2017-08-19T17:37:20.924Z,2.82
2017-08-19T17:39:52.197Z,3.30
2017-08-19T17:42:25.481Z,3.22
2017-08-19T17:45:11.626Z,3.33
2017-08-19T17:47:38.727Z,3.58
2017-08-19T17:50:06.245Z,3.10
2017-08-19T17:52:33.809Z,3.27
2017-08-19T17:55:01.353Z,2.88
2017-08-19T17:57:28.731Z,3.25
2017-08-19T17:59:55.725Z,3.40
2017-08-19T18:02:23.421Z,3.12
2017-08-19T18:04:56.735Z,3.63
2017-08-19T18:07:25.884Z,2.95
2017-08-19T18:09:58.109Z,2.80
2017-08-19T18:12:25.374Z,3.20
2017-08-19T18:14:56.586Z,3.38
2017-08-19T18:17:25.788Z,3.30
2017-08-19T18:19:52.720Z,3.58
2017-08-19T18:22:21.273Z,3.08
2017-08-19T18:24:48.630Z,2.83
2017-08-19T18:27:15.694Z,2.77
2017-08-19T18:29:45.839Z,2.62
2017-08-19T18:32:16.766Z,3.07
2017-08-19T18:34:45.164Z,3.95
2017-08-19T18:37:11.947Z,2.90
2017-08-19T18:39:39.134Z,3.52
2017-08-19T18:42:12.279Z,2.27
2017-08-19T18:44:42.597Z,3.08
2017-08-19T18:47:10.418Z,2.50
2017-08-19T18:52:22.981Z,2.68
2017-08-19T18:54:52.005Z,2.33
2017-08-19T18:57:19.507Z,2.20
2017-08-19T18:59:46.296Z,3.38
2017-08-19T19:02:13.336Z,3.15
2017-08-19T19:04:40.736Z,2.85
2017-08-19T19:07:10.428Z,3.15
2017-08-19T19:09:40.695Z,3.58
2017-08-19T19:12:07.455Z,3.50
2017-08-19T19:14:35.694Z,3.22
2017-08-19T19:17:03.035Z,3.77
2017-08-19T19:19:38.868Z,3.17
2017-08-19T19:22:11.998Z,3.50
2017-08-19T19:24:45.313Z,3.15
2017-08-19T19:27:18.660Z,4.28
2017-08-19T19:29:46.376Z,5.12
2017-08-19T19:32:14.419Z,4.77
2017-08-19T19:34:42.670Z,4.97
2017-08-19T19:37:10.114Z,4.32
2017-08-19T19:39:37.376Z,4.47
2017-08-19T19:42:05.797Z,4.85
2017-08-19T19:44:33.914Z,5.80
2017-08-19T19:49:35.937Z,5.13
2017-08-19T19:52:04.777Z,5.30
2017-08-19T19:54:36.357Z,5.37
2017-08-19T19:57:03.124Z,5.25
2017-08-19T19:59:31.103Z,5.40
2017-08-19T20:02:05.509Z,5.98
2017-08-19T20:04:37.456Z,6.28
2017-08-19T20:07:04.291Z,6.57
2017-08-19T20:09:39.209Z,6.37
2017-08-19T20:12:13.535Z,6.73
2017-08-19T20:14:42.559Z,6.87
2017-08-19T20:17:10.146Z,6.08
2017-08-19T20:19:37.582Z,6.68
2017-08-19T20:22:05.200Z,7.57
2017-08-19T20:24:33.998Z,7.67
2017-08-19T20:27:01.217Z,7.70
2017-08-19T20:29:30.476Z,8.15
2017-08-19T20:31:57.265Z,8.28
2017-08-19T20:34:24.348Z,7.72
2017-08-19T20:36:51.134Z,7.37
2017-08-19T20:39:18.751Z,7.25
2017-08-19T20:41:46.964Z,8.43
2017-08-19T20:44:14.531Z,7.32
2017-08-19T20:46:42.797Z,8.23
2017-08-19T20:49:10.472Z,8.72
2017-08-19T20:51:37.789Z,8.68
2017-08-19T20:54:09.374Z,7.68
2017-08-19T20:56:36.960Z,8.77
2017-08-19T20:59:05.276Z,7.80
2017-08-19T21:01:32.156Z,8.85
2017-08-19T21:04:01.280Z,7.10
2017-08-19T21:06:29.800Z,7.27
2017-08-19T21:09:03.075Z,9.65
2017-08-19T21:11:37.071Z,7.62
2017-08-19T21:14:10.099Z,8.10
2017-08-19T21:16:37.868Z,8.23
2017-08-19T21:19:06.294Z,9.63
2017-08-19T21:21:37.261Z,10.27
2017-08-19T21:24:04.283Z,8.32
2017-08-19T21:26:31.685Z,10.75
2017-08-19T21:28:58.473Z,10.85
2017-08-19T21:31:25.467Z,9.77
2017-08-19T21:33:55.070Z,10.28
2017-08-19T21:36:23.382Z,10.97
2017-08-19T21:38:52.791Z,11.28
2017-08-19T21:43:58.626Z,11.98
2017-08-19T21:46:26.881Z,11.20
2017-08-19T21:48:53.952Z,12.08
2017-08-19T21:51:21.044Z,12.43
2017-08-19T21:53:48.230Z,13.00
2017-08-19T21:56:15.402Z,13.53
2017-08-19T21:58:42.346Z,13.40
2017-08-19T22:01:11.994Z,12.88
2017-08-19T22:03:45.490Z,14.47
2017-08-19T22:06:12.587Z,13.02
2017-08-19T22:08:40.520Z,13.55
2017-08-19T22:11:07.320Z,11.77
2017-08-19T22:13:39.187Z,12.13
2017-08-19T22:16:09.288Z,11.25
2017-08-19T22:18:36.070Z,12.28
2017-08-19T22:21:03.224Z,10.68
2017-08-19T22:23:31.726Z,10.22
2017-08-19T22:26:00.176Z,8.90
2017-08-19T22:28:28.653Z,10.32
2017-08-19T22:30:56.048Z,9.72
2017-08-19T22:33:23.555Z,9.37
2017-08-19T22:35:55.445Z,9.53
2017-08-19T22:38:24.137Z,9.83
2017-08-19T22:40:52.108Z,9.13
2017-08-19T22:43:19.847Z,9.07
2017-08-19T22:45:46.623Z,9.33
2017-08-19T22:48:13.952Z,10.03
2017-08-19T22:50:40.997Z,8.93
2017-08-19T22:53:08.634Z,9.63
2017-08-19T22:55:35.800Z,9.15
2017-08-19T22:58:02.629Z,8.88
2017-08-19T23:00:30.528Z,8.68
2017-08-19T23:02:57.984Z,9.87
2017-08-19T23:05:24.780Z,8.97
2017-08-19T23:07:53.087Z,9.22
2017-08-19T23:10:21.165Z,9.02
2017-08-19T23:12:48.741Z,9.32
2017-08-19T23:15:16.026Z,9.90
2017-08-19T23:17:43.831Z,10.30
2017-08-19T23:20:14.683Z,10.50
2017-08-19T23:22:42.713Z,9.93
2017-08-19T23:25:09.475Z,10.40
2017-08-19T23:27:36.978Z,10.02
2017-08-19T23:30:03.796Z,10.52
2017-08-19T23:32:30.560Z,10.38
2017-08-19T23:34:57.649Z,10.38
2017-08-19T23:37:25.081Z,10.18
2017-08-19T23:39:51.896Z,11.60
2017-08-19T23:42:19.505Z,10.53
2017-08-19T23:44:46.317Z,11.12
2017-08-19T23:47:15.385Z,11.15
2017-08-19T23:49:43.484Z,10.90
2017-08-19T23:52:10.299Z,12.02
2017-08-19T23:54:37.396Z,12.33
2017-08-19T23:57:04.208Z,11.08
2017-08-19T23:59:31.696Z,14.10
